sensor_id;sensor_type;location;lat;lon;timestamp;P1;durP1;ratioP1;P2;durP2;ratioP2
78430;SDS011;67727;50.236;22.452;2024-01-16T00:01:44;9.90;;;5.30;;
78430;SDS011;67727;50.236;22.452;2024-01-16T00:04:11;11.30;;;5.50;;
78430;SDS011;67727;50.236;22.452;2024-01-16T00:06:41;13.80;;;6.90;;
78430;SDS011;67727;50.236;22.452;2024-01-16T00:09:09;13.10;;;7.10;;
78430;SDS011;67727;50.236;22.452;2024-01-16T00:11:42;8.40;;;5.50;;
78430;SDS011;67727;50.236;22.452;2024-01-16T00:14:09;12.40;;;6.30;;
78430;SDS011;67727;50.236;22.452;2024-01-16T00:16:42;12.10;;;5.70;;
78430;SDS011;67727;50.236;22.452;2024-01-16T00:19:10;10.40;;;5.40;;
78430;SDS011;67727;50.236;22.452;2024-01-16T00:21:38;8.90;;;6.00;;
78430;SDS011;67727;50.236;22.452;2024-01-16T00:24:06;8.40;;;5.00;;
78430;SDS011;67727;50.236;22.452;2024-01-16T00:26:33;10.90;;;5.80;;
78430;SDS011;67727;50.236;22.452;2024-01-16T00:29:00;8.80;;;4.80;;
78430;SDS011;67727;50.236;22.452;2024-01-16T00:31:27;13.30;;;4.80;;
78430;SDS011;67727;50.236;22.452;2024-01-16T00:33:54;10.70;;;4.90;;
78430;SDS011;67727;50.236;22.452;2024-01-16T00:36:21;11.60;;;5.90;;
78430;SDS011;67727;50.236;22.452;2024-01-16T00:38:48;11.00;;;6.10;;
78430;SDS011;67727;50.236;22.452;2024-01-16T00:41:14;9.80;;;5.40;;
78430;SDS011;67727;50.236;22.452;2024-01-16T00:43:42;6.30;;;4.00;;
78430;SDS011;67727;50.236;22.452;2024-01-16T00:46:10;13.00;;;5.40;;
78430;SDS011;67727;50.236;22.452;2024-01-16T00:48:36;11.70;;;5.30;;
78430;SDS011;67727;50.236;22.452;2024-01-16T00:51:03;14.20;;;5.50;;
78430;SDS011;67727;50.236;22.452;2024-01-16T00:53:30;13.70;;;7.10;;
78430;SDS011;67727;50.236;22.452;2024-01-16T00:55:57;9.90;;;5.10;;
78430;SDS011;67727;50.236;22.452;2024-01-16T00:58:24;11.90;;;5.30;;
78430;SDS011;67727;50.236;22.452;2024-01-16T01:00:51;11.50;;;5.40;;
78430;SDS011;67727;50.236;22.452;2024-01-16T01:03:18;4.90;;;3.00;;
78430;SDS011;67727;50.236;22.452;2024-01-16T01:05:45;8.90;;;5.00;;
78430;SDS011;67727;50.236;22.452;2024-01-16T01:08:12;7.30;;;4.10;;
78430;SDS011;67727;50.236;22.452;2024-01-16T01:10:39;10.50;;;6.10;;
78430;SDS011;67727;50.236;22.452;2024-01-16T01:13:06;6.80;;;4.80;;
78430;SDS011;67727;50.236;22.452;2024-01-16T01:15:33;8.00;;;4.30;;
78430;SDS011;67727;50.236;22.452;2024-01-16T01:17:59;8.10;;;4.10;;
78430;SDS011;67727;50.236;22.452;2024-01-16T01:20:26;7.90;;;4.50;;
78430;SDS011;67727;50.236;22.452;2024-01-16T01:22:53;6.40;;;3.90;;
78430;SDS011;67727;50.236;22.452;2024-01-16T01:25:20;7.00;;;5.10;;
78430;SDS011;67727;50.236;22.452;2024-01-16T01:27:48;11.10;;;5.80;;
78430;SDS011;67727;50.236;22.452;2024-01-16T01:30:15;10.40;;;5.80;;
78430;SDS011;67727;50.236;22.452;2024-01-16T01:32:41;6.10;;;4.00;;
78430;SDS011;67727;50.236;22.452;2024-01-16T01:35:10;8.70;;;4.70;;
78430;SDS011;67727;50.236;22.452;2024-01-16T01:37:38;8.60;;;4.60;;
78430;SDS011;67727;50.236;22.452;2024-01-16T01:40:05;10.40;;;5.70;;
78430;SDS011;67727;50.236;22.452;2024-01-16T01:42:32;11.50;;;5.60;;
78430;SDS011;67727;50.236;22.452;2024-01-16T01:44:59;3.80;;;3.20;;
78430;SDS011;67727;50.236;22.452;2024-01-16T01:47:25;8.60;;;5.10;;
78430;SDS011;67727;50.236;22.452;2024-01-16T01:49:53;9.70;;;5.20;;
78430;SDS011;67727;50.236;22.452;2024-01-16T01:52:21;10.20;;;5.70;;
78430;SDS011;67727;50.236;22.452;2024-01-16T01:54:48;7.30;;;3.40;;
78430;SDS011;67727;50.236;22.452;2024-01-16T01:57:15;12.00;;;5.20;;
78430;SDS011;67727;50.236;22.452;2024-01-16T01:59:42;12.20;;;6.60;;
78430;SDS011;67727;50.236;22.452;2024-01-16T02:02:09;9.80;;;5.30;;
78430;SDS011;67727;50.236;22.452;2024-01-16T02:04:38;8.90;;;6.00;;
78430;SDS011;67727;50.236;22.452;2024-01-16T02:07:06;11.20;;;6.10;;
78430;SDS011;67727;50.236;22.452;2024-01-16T02:12:01;7.60;;;4.00;;
78430;SDS011;67727;50.236;22.452;2024-01-16T02:14:28;5.70;;;3.10;;
78430;SDS011;67727;50.236;22.452;2024-01-16T02:16:55;6.80;;;4.50;;
78430;SDS011;67727;50.236;22.452;2024-01-16T02:19:22;8.50;;;5.40;;
78430;SDS011;67727;50.236;22.452;2024-01-16T02:21:51;8.40;;;4.90;;
78430;SDS011;67727;50.236;22.452;2024-01-16T02:24:24;10.40;;;5.10;;
78430;SDS011;67727;50.236;22.452;2024-01-16T02:26:51;11.20;;;5.50;;
78430;SDS011;67727;50.236;22.452;2024-01-16T02:29:18;8.30;;;6.10;;
78430;SDS011;67727;50.236;22.452;2024-01-16T02:31:45;9.90;;;5.50;;
78430;SDS011;67727;50.236;22.452;2024-01-16T02:34:12;8.40;;;5.40;;
78430;SDS011;67727;50.236;22.452;2024-01-16T02:36:39;5.90;;;4.60;;
78430;SDS011;67727;50.236;22.452;2024-01-16T02:39:06;6.30;;;4.80;;
78430;SDS011;67727;50.236;22.452;2024-01-16T02:41:33;7.40;;;4.00;;
78430;SDS011;67727;50.236;22.452;2024-01-16T02:44:00;11.00;;;5.30;;
78430;SDS011;67727;50.236;22.452;2024-01-16T02:46:27;8.60;;;4.90;;
78430;SDS011;67727;50.236;22.452;2024-01-16T02:48:53;4.30;;;3.60;;
78430;SDS011;67727;50.236;22.452;2024-01-16T02:51:20;5.30;;;3.40;;
78430;SDS011;67727;50.236;22.452;2024-01-16T02:53:47;6.60;;;3.30;;
78430;SDS011;67727;50.236;22.452;2024-01-16T02:56:14;8.90;;;4.60;;
78430;SDS011;67727;50.236;22.452;2024-01-16T02:58:41;9.40;;;5.30;;
78430;SDS011;67727;50.236;22.452;2024-01-16T03:01:08;11.40;;;5.00;;
78430;SDS011;67727;50.236;22.452;2024-01-16T03:03:35;4.70;;;3.50;;
78430;SDS011;67727;50.236;22.452;2024-01-16T03:06:02;9.30;;;4.40;;
78430;SDS011;67727;50.236;22.452;2024-01-16T03:08:29;8.90;;;5.40;;
78430;SDS011;67727;50.236;22.452;2024-01-16T03:10:56;7.10;;;5.30;;
78430;SDS011;67727;50.236;22.452;2024-01-16T03:13:23;9.00;;;5.10;;
78430;SDS011;67727;50.236;22.452;2024-01-16T03:15:50;9.60;;;5.00;;
78430;SDS011;67727;50.236;22.452;2024-01-16T03:18:17;5.00;;;3.90;;
78430;SDS011;67727;50.236;22.452;2024-01-16T03:20:43;7.30;;;4.80;;
78430;SDS011;67727;50.236;22.452;2024-01-16T03:23:11;7.70;;;4.50;;
78430;SDS011;67727;50.236;22.452;2024-01-16T03:25:38;11.10;;;5.20;;
78430;SDS011;67727;50.236;22.452;2024-01-16T03:28:05;8.00;;;5.00;;
78430;SDS011;67727;50.236;22.452;2024-01-16T03:30:34;9.20;;;5.40;;
78430;SDS011;67727;50.236;22.452;2024-01-16T03:33:01;7.30;;;4.70;;
78430;SDS011;67727;50.236;22.452;2024-01-16T03:35:29;6.50;;;4.40;;
78430;SDS011;67727;50.236;22.452;2024-01-16T03:37:55;10.30;;;5.40;;
78430;SDS011;67727;50.236;22.452;2024-01-16T03:40:22;11.40;;;6.10;;
78430;SDS011;67727;50.236;22.452;2024-01-16T03:42:49;8.30;;;5.20;;
78430;SDS011;67727;50.236;22.452;2024-01-16T03:45:16;6.30;;;3.60;;
78430;SDS011;67727;50.236;22.452;2024-01-16T03:47:43;10.60;;;4.70;;
78430;SDS011;67727;50.236;22.452;2024-01-16T03:50:09;12.60;;;6.40;;
78430;SDS011;67727;50.236;22.452;2024-01-16T03:52:37;10.80;;;6.80;;
78430;SDS011;67727;50.236;22.452;2024-01-16T03:55:04;11.80;;;5.70;;
78430;SDS011;67727;50.236;22.452;2024-01-16T03:57:31;104.60;;;25.20;;
78430;SDS011;67727;50.236;22.452;2024-01-16T03:59:57;25.80;;;9.70;;
78430;SDS011;67727;50.236;22.452;2024-01-16T04:02:24;10.60;;;5.50;;
78430;SDS011;67727;50.236;22.452;2024-01-16T04:04:51;7.90;;;5.30;;
78430;SDS011;67727;50.236;22.452;2024-01-16T04:07:18;14.10;;;8.50;;
78430;SDS011;67727;50.236;22.452;2024-01-16T04:09:45;15.40;;;9.10;;
78430;SDS011;67727;50.236;22.452;2024-01-16T04:12:12;14.40;;;9.00;;
78430;SDS011;67727;50.236;22.452;2024-01-16T04:14:39;9.20;;;6.10;;
78430;SDS011;67727;50.236;22.452;2024-01-16T04:17:06;11.90;;;6.60;;
78430;SDS011;67727;50.236;22.452;2024-01-16T04:19:33;11.80;;;6.60;;
78430;SDS011;67727;50.236;22.452;2024-01-16T04:22:00;12.10;;;6.30;;
78430;SDS011;67727;50.236;22.452;2024-01-16T04:24:27;14.80;;;8.00;;
78430;SDS011;67727;50.236;22.452;2024-01-16T04:26:54;23.50;;;10.40;;
78430;SDS011;67727;50.236;22.452;2024-01-16T04:29:21;12.30;;;7.10;;
78430;SDS011;67727;50.236;22.452;2024-01-16T04:31:48;9.30;;;6.40;;
78430;SDS011;67727;50.236;22.452;2024-01-16T04:34:15;10.20;;;6.80;;
78430;SDS011;67727;50.236;22.452;2024-01-16T04:36:41;10.40;;;7.10;;
78430;SDS011;67727;50.236;22.452;2024-01-16T04:39:08;12.30;;;6.30;;
78430;SDS011;67727;50.236;22.452;2024-01-16T04:41:35;10.20;;;5.20;;
78430;SDS011;67727;50.236;22.452;2024-01-16T04:44:02;8.60;;;5.60;;
78430;SDS011;67727;50.236;22.452;2024-01-16T04:46:29;10.10;;;5.70;;
78430;SDS011;67727;50.236;22.452;2024-01-16T04:48:56;7.80;;;4.40;;
78430;SDS011;67727;50.236;22.452;2024-01-16T04:51:23;7.30;;;4.10;;
78430;SDS011;67727;50.236;22.452;2024-01-16T04:53:50;13.60;;;6.10;;
78430;SDS011;67727;50.236;22.452;2024-01-16T04:56:16;13.10;;;7.70;;
78430;SDS011;67727;50.236;22.452;2024-01-16T04:58:43;14.80;;;9.60;;
78430;SDS011;67727;50.236;22.452;2024-01-16T05:01:10;15.60;;;8.00;;
78430;SDS011;67727;50.236;22.452;2024-01-16T05:03:39;12.30;;;7.70;;
78430;SDS011;67727;50.236;22.452;2024-01-16T05:06:12;10.60;;;7.00;;
78430;SDS011;67727;50.236;22.452;2024-01-16T05:11:09;14.70;;;8.90;;
78430;SDS011;67727;50.236;22.452;2024-01-16T05:16:03;18.10;;;10.00;;
78430;SDS011;67727;50.236;22.452;2024-01-16T05:18:30;15.80;;;8.40;;
78430;SDS011;67727;50.236;22.452;2024-01-16T05:20:59;14.40;;;8.20;;
78430;SDS011;67727;50.236;22.452;2024-01-16T05:23:26;17.70;;;7.50;;
78430;SDS011;67727;50.236;22.452;2024-01-16T05:25:54;12.60;;;7.50;;
78430;SDS011;67727;50.236;22.452;2024-01-16T05:28:20;20.10;;;9.20;;
78430;SDS011;67727;50.236;22.452;2024-01-16T05:30:47;25.40;;;10.50;;
78430;SDS011;67727;50.236;22.452;2024-01-16T05:33:14;18.20;;;9.40;;
78430;SDS011;67727;50.236;22.452;2024-01-16T05:35:41;17.50;;;8.80;;
78430;SDS011;67727;50.236;22.452;2024-01-16T05:38:08;16.30;;;8.20;;
78430;SDS011;67727;50.236;22.452;2024-01-16T05:40:35;13.50;;;7.30;;
78430;SDS011;67727;50.236;22.452;2024-01-16T05:43:01;12.90;;;7.60;;
78430;SDS011;67727;50.236;22.452;2024-01-16T05:45:29;14.30;;;6.90;;
78430;SDS011;67727;50.236;22.452;2024-01-16T05:47:55;18.50;;;8.30;;
78430;SDS011;67727;50.236;22.452;2024-01-16T05:50:22;19.70;;;6.60;;
78430;SDS011;67727;50.236;22.452;2024-01-16T05:52:49;10.50;;;5.40;;
78430;SDS011;67727;50.236;22.452;2024-01-16T05:55:16;12.90;;;7.10;;
78430;SDS011;67727;50.236;22.452;2024-01-16T05:57:43;6.30;;;4.50;;
78430;SDS011;67727;50.236;22.452;2024-01-16T06:00:10;9.10;;;4.60;;
78430;SDS011;67727;50.236;22.452;2024-01-16T06:02:38;11.90;;;7.40;;
78430;SDS011;67727;50.236;22.452;2024-01-16T06:05:04;13.30;;;6.30;;
78430;SDS011;67727;50.236;22.452;2024-01-16T06:07:32;12.10;;;6.50;;
78430;SDS011;67727;50.236;22.452;2024-01-16T06:09:59;15.30;;;7.50;;
78430;SDS011;67727;50.236;22.452;2024-01-16T06:12:26;14.90;;;8.40;;
78430;SDS011;67727;50.236;22.452;2024-01-16T06:14:53;13.80;;;8.30;;
78430;SDS011;67727;50.236;22.452;2024-01-16T06:17:20;10.50;;;5.20;;
78430;SDS011;67727;50.236;22.452;2024-01-16T06:19:47;11.00;;;7.70;;
78430;SDS011;67727;50.236;22.452;2024-01-16T06:22:14;10.70;;;5.70;;
78430;SDS011;67727;50.236;22.452;2024-01-16T06:24:41;7.70;;;5.60;;
78430;SDS011;67727;50.236;22.452;2024-01-16T06:27:08;10.10;;;6.10;;
78430;SDS011;67727;50.236;22.452;2024-01-16T06:29:35;11.10;;;5.90;;
78430;SDS011;67727;50.236;22.452;2024-01-16T06:32:02;11.90;;;6.80;;
78430;SDS011;67727;50.236;22.452;2024-01-16T06:34:29;21.60;;;8.80;;
78430;SDS011;67727;50.236;22.452;2024-01-16T06:36:56;17.50;;;9.20;;
78430;SDS011;67727;50.236;22.452;2024-01-16T06:39:23;17.40;;;9.70;;
78430;SDS011;67727;50.236;22.452;2024-01-16T06:41:50;16.70;;;10.00;;
78430;SDS011;67727;50.236;22.452;2024-01-16T06:44:18;14.20;;;9.20;;
78430;SDS011;67727;50.236;22.452;2024-01-16T06:49:12;22.00;;;10.60;;
78430;SDS011;67727;50.236;22.452;2024-01-16T06:51:39;14.20;;;7.80;;
78430;SDS011;67727;50.236;22.452;2024-01-16T06:54:06;13.10;;;8.00;;
78430;SDS011;67727;50.236;22.452;2024-01-16T06:56:33;14.40;;;9.00;;
78430;SDS011;67727;50.236;22.452;2024-01-16T06:58:59;11.60;;;7.40;;
78430;SDS011;67727;50.236;22.452;2024-01-16T07:01:26;12.40;;;6.90;;
78430;SDS011;67727;50.236;22.452;2024-01-16T07:03:53;15.60;;;7.70;;
78430;SDS011;67727;50.236;22.452;2024-01-16T07:06:20;7.40;;;3.20;;
78430;SDS011;67727;50.236;22.452;2024-01-16T07:08:47;13.90;;;7.30;;
78430;SDS011;67727;50.236;22.452;2024-01-16T07:11:14;14.40;;;8.10;;
78430;SDS011;67727;50.236;22.452;2024-01-16T07:13:41;16.80;;;8.40;;
78430;SDS011;67727;50.236;22.452;2024-01-16T07:16:11;12.80;;;8.20;;
78430;SDS011;67727;50.236;22.452;2024-01-16T07:18:38;14.50;;;8.60;;
78430;SDS011;67727;50.236;22.452;2024-01-16T07:21:17;19.30;;;9.30;;
78430;SDS011;67727;50.236;22.452;2024-01-16T07:23:44;7.10;;;3.80;;
78430;SDS011;67727;50.236;22.452;2024-01-16T07:26:11;13.20;;;7.30;;
78430;SDS011;67727;50.236;22.452;2024-01-16T07:28:38;10.30;;;7.00;;
78430;SDS011;67727;50.236;22.452;2024-01-16T07:31:05;12.10;;;7.50;;
78430;SDS011;67727;50.236;22.452;2024-01-16T07:33:32;8.90;;;5.60;;
78430;SDS011;67727;50.236;22.452;2024-01-16T07:35:59;13.80;;;7.70;;
78430;SDS011;67727;50.236;22.452;2024-01-16T07:38:26;10.90;;;6.80;;
78430;SDS011;67727;50.236;22.452;2024-01-16T07:40:54;11.90;;;6.60;;
78430;SDS011;67727;50.236;22.452;2024-01-16T07:43:22;16.70;;;8.60;;
78430;SDS011;67727;50.236;22.452;2024-01-16T07:45:50;16.40;;;7.30;;
78430;SDS011;67727;50.236;22.452;2024-01-16T07:48:17;15.40;;;8.70;;
78430;SDS011;67727;50.236;22.452;2024-01-16T07:50:44;13.60;;;8.00;;
78430;SDS011;67727;50.236;22.452;2024-01-16T07:53:12;9.40;;;6.90;;
78430;SDS011;67727;50.236;22.452;2024-01-16T07:55:39;16.20;;;7.90;;
78430;SDS011;67727;50.236;22.452;2024-01-16T07:58:06;9.00;;;5.60;;
78430;SDS011;67727;50.236;22.452;2024-01-16T08:00:33;11.00;;;7.20;;
78430;SDS011;67727;50.236;22.452;2024-01-16T08:03:00;9.40;;;4.50;;
78430;SDS011;67727;50.236;22.452;2024-01-16T08:05:27;10.40;;;5.90;;
78430;SDS011;67727;50.236;22.452;2024-01-16T08:07:54;18.50;;;8.70;;
78430;SDS011;67727;50.236;22.452;2024-01-16T08:10:21;21.20;;;10.20;;
78430;SDS011;67727;50.236;22.452;2024-01-16T08:12:47;17.60;;;9.00;;
78430;SDS011;67727;50.236;22.452;2024-01-16T08:15:14;30.30;;;12.90;;
78430;SDS011;67727;50.236;22.452;2024-01-16T08:17:42;28.60;;;12.10;;
78430;SDS011;67727;50.236;22.452;2024-01-16T08:20:08;16.20;;;7.80;;
78430;SDS011;67727;50.236;22.452;2024-01-16T08:22:36;7.50;;;5.00;;
78430;SDS011;67727;50.236;22.452;2024-01-16T08:25:04;7.70;;;6.00;;
78430;SDS011;67727;50.236;22.452;2024-01-16T08:27:31;11.70;;;6.10;;
78430;SDS011;67727;50.236;22.452;2024-01-16T08:29:59;11.40;;;6.80;;
78430;SDS011;67727;50.236;22.452;2024-01-16T08:32:26;6.30;;;3.70;;
78430;SDS011;67727;50.236;22.452;2024-01-16T08:34:53;7.40;;;4.30;;
78430;SDS011;67727;50.236;22.452;2024-01-16T08:37:20;13.10;;;5.40;;
78430;SDS011;67727;50.236;22.452;2024-01-16T08:39:47;10.30;;;4.70;;
78430;SDS011;67727;50.236;22.452;2024-01-16T08:42:13;9.50;;;4.70;;
78430;SDS011;67727;50.236;22.452;2024-01-16T08:44:40;6.20;;;3.80;;
78430;SDS011;67727;50.236;22.452;2024-01-16T08:47:07;6.50;;;4.30;;
78430;SDS011;67727;50.236;22.452;2024-01-16T08:49:34;11.10;;;3.70;;
78430;SDS011;67727;50.236;22.452;2024-01-16T08:52:01;11.80;;;5.90;;
78430;SDS011;67727;50.236;22.452;2024-01-16T08:54:29;13.50;;;6.00;;
78430;SDS011;67727;50.236;22.452;2024-01-16T08:56:56;12.60;;;5.60;;
78430;SDS011;67727;50.236;22.452;2024-01-16T08:59:23;9.90;;;5.60;;
78430;SDS011;67727;50.236;22.452;2024-01-16T09:01:50;8.20;;;3.90;;
78430;SDS011;67727;50.236;22.452;2024-01-16T09:04:18;10.80;;;5.90;;
78430;SDS011;67727;50.236;22.452;2024-01-16T09:06:45;13.20;;;6.20;;
78430;SDS011;67727;50.236;22.452;2024-01-16T09:09:12;10.20;;;5.70;;
78430;SDS011;67727;50.236;22.452;2024-01-16T09:11:39;15.70;;;7.10;;
78430;SDS011;67727;50.236;22.452;2024-01-16T09:14:05;12.90;;;6.70;;
78430;SDS011;67727;50.236;22.452;2024-01-16T09:16:32;10.20;;;6.00;;
78430;SDS011;67727;50.236;22.452;2024-01-16T09:18:59;10.40;;;5.80;;
78430;SDS011;67727;50.236;22.452;2024-01-16T09:21:26;11.40;;;5.50;;
78430;SDS011;67727;50.236;22.452;2024-01-16T09:23:53;11.60;;;6.20;;
78430;SDS011;67727;50.236;22.452;2024-01-16T09:26:20;11.20;;;6.60;;
78430;SDS011;67727;50.236;22.452;2024-01-16T09:28:47;12.10;;;5.40;;
78430;SDS011;67727;50.236;22.452;2024-01-16T09:31:17;5.00;;;4.00;;
78430;SDS011;67727;50.236;22.452;2024-01-16T09:33:44;10.20;;;4.30;;
78430;SDS011;67727;50.236;22.452;2024-01-16T09:36:11;12.70;;;4.90;;
78430;SDS011;67727;50.236;22.452;2024-01-16T09:38:38;7.30;;;3.80;;
78430;SDS011;67727;50.236;22.452;2024-01-16T09:41:05;6.00;;;4.00;;
78430;SDS011;67727;50.236;22.452;2024-01-16T09:43:32;6.70;;;4.00;;
78430;SDS011;67727;50.236;22.452;2024-01-16T09:48:31;10.70;;;4.90;;
78430;SDS011;67727;50.236;22.452;2024-01-16T09:50:58;8.80;;;4.40;;
78430;SDS011;67727;50.236;22.452;2024-01-16T09:53:25;7.40;;;3.80;;
78430;SDS011;67727;50.236;22.452;2024-01-16T09:55:52;8.50;;;4.80;;
78430;SDS011;67727;50.236;22.452;2024-01-16T09:58:22;8.50;;;4.90;;
78430;SDS011;67727;50.236;22.452;2024-01-16T10:00:49;5.70;;;3.90;;
78430;SDS011;67727;50.236;22.452;2024-01-16T10:03:17;5.30;;;4.20;;
78430;SDS011;67727;50.236;22.452;2024-01-16T10:05:45;8.40;;;5.20;;
78430;SDS011;67727;50.236;22.452;2024-01-16T10:08:14;3.80;;;3.40;;
78430;SDS011;67727;50.236;22.452;2024-01-16T10:10:41;6.60;;;4.60;;
78430;SDS011;67727;50.236;22.452;2024-01-16T10:13:08;7.70;;;5.30;;
78430;SDS011;67727;50.236;22.452;2024-01-16T10:15:35;8.80;;;5.00;;
78430;SDS011;67727;50.236;22.452;2024-01-16T10:18:03;12.00;;;6.80;;
78430;SDS011;67727;50.236;22.452;2024-01-16T10:20:34;11.40;;;5.80;;
78430;SDS011;67727;50.236;22.452;2024-01-16T10:23:01;8.90;;;5.00;;
78430;SDS011;67727;50.236;22.452;2024-01-16T10:25:30;9.10;;;5.40;;
78430;SDS011;67727;50.236;22.452;2024-01-16T10:28:02;6.80;;;4.30;;
78430;SDS011;67727;50.236;22.452;2024-01-16T10:30:31;9.10;;;3.80;;
78430;SDS011;67727;50.236;22.452;2024-01-16T10:33:11;6.90;;;3.70;;
78430;SDS011;67727;50.236;22.452;2024-01-16T10:35:40;7.80;;;4.70;;
78430;SDS011;67727;50.236;22.452;2024-01-16T10:38:07;3.60;;;3.30;;
78430;SDS011;67727;50.236;22.452;2024-01-16T10:40:34;6.40;;;4.30;;
78430;SDS011;67727;50.236;22.452;2024-01-16T10:43:02;5.00;;;3.10;;
78430;SDS011;67727;50.236;22.452;2024-01-16T10:45:30;6.10;;;4.30;;
78430;SDS011;67727;50.236;22.452;2024-01-16T10:48:02;7.80;;;5.20;;
78430;SDS011;67727;50.236;22.452;2024-01-16T10:50:30;8.50;;;5.10;;
78430;SDS011;67727;50.236;22.452;2024-01-16T10:53:08;11.30;;;5.10;;
78430;SDS011;67727;50.236;22.452;2024-01-16T10:58:26;5.60;;;4.00;;
78430;SDS011;67727;50.236;22.452;2024-01-16T11:01:01;9.60;;;4.60;;
78430;SDS011;67727;50.236;22.452;2024-01-16T11:03:35;10.20;;;3.90;;
78430;SDS011;67727;50.236;22.452;2024-01-16T11:06:07;7.30;;;4.00;;
78430;SDS011;67727;50.236;22.452;2024-01-16T11:08:35;8.70;;;5.10;;
78430;SDS011;67727;50.236;22.452;2024-01-16T11:11:04;8.90;;;5.10;;
78430;SDS011;67727;50.236;22.452;2024-01-16T11:13:34;11.40;;;5.30;;
78430;SDS011;67727;50.236;22.452;2024-01-16T11:16:03;7.70;;;4.90;;
78430;SDS011;67727;50.236;22.452;2024-01-16T11:18:33;9.80;;;5.10;;
78430;SDS011;67727;50.236;22.452;2024-01-16T11:21:04;9.80;;;5.30;;
78430;SDS011;67727;50.236;22.452;2024-01-16T11:23:39;6.30;;;4.00;;
78430;SDS011;67727;50.236;22.452;2024-01-16T11:28:59;4.30;;;3.40;;
78430;SDS011;67727;50.236;22.452;2024-01-16T11:39:17;7.10;;;4.60;;
78430;SDS011;67727;50.236;22.452;2024-01-16T11:41:52;7.20;;;4.20;;
78430;SDS011;67727;50.236;22.452;2024-01-16T11:44:42;9.10;;;4.70;;
78430;SDS011;67727;50.236;22.452;2024-01-16T11:47:20;6.60;;;5.00;;
78430;SDS011;67727;50.236;22.452;2024-01-16T11:49:49;7.20;;;4.10;;
78430;SDS011;67727;50.236;22.452;2024-01-16T11:55:30;3.10;;;2.40;;
78430;SDS011;67727;50.236;22.452;2024-01-16T12:01:09;5.70;;;3.50;;
78430;SDS011;67727;50.236;22.452;2024-01-16T12:03:38;7.00;;;3.70;;
78430;SDS011;67727;50.236;22.452;2024-01-16T12:06:06;5.50;;;3.70;;
78430;SDS011;67727;50.236;22.452;2024-01-16T12:08:34;5.60;;;4.10;;
78430;SDS011;67727;50.236;22.452;2024-01-16T12:11:03;9.00;;;4.30;;
78430;SDS011;67727;50.236;22.452;2024-01-16T12:13:31;19.00;;;7.80;;
78430;SDS011;67727;50.236;22.452;2024-01-16T12:16:05;14.70;;;6.50;;
78430;SDS011;67727;50.236;22.452;2024-01-16T12:18:32;12.90;;;4.80;;
78430;SDS011;67727;50.236;22.452;2024-01-16T12:21:07;10.20;;;5.10;;
78430;SDS011;67727;50.236;22.452;2024-01-16T12:23:35;8.10;;;4.50;;
78430;SDS011;67727;50.236;22.452;2024-01-16T12:26:03;11.20;;;4.60;;
78430;SDS011;67727;50.236;22.452;2024-01-16T12:28:30;8.20;;;4.50;;
78430;SDS011;67727;50.236;22.452;2024-01-16T12:30:57;8.90;;;4.80;;
78430;SDS011;67727;50.236;22.452;2024-01-16T12:33:24;6.90;;;3.90;;
78430;SDS011;67727;50.236;22.452;2024-01-16T12:35:56;7.60;;;3.70;;
78430;SDS011;67727;50.236;22.452;2024-01-16T12:38:28;4.50;;;3.50;;
78430;SDS011;67727;50.236;22.452;2024-01-16T12:40:55;9.50;;;5.50;;
78430;SDS011;67727;50.236;22.452;2024-01-16T12:43:22;15.10;;;6.90;;
78430;SDS011;67727;50.236;22.452;2024-01-16T12:45:56;12.50;;;5.80;;
78430;SDS011;67727;50.236;22.452;2024-01-16T12:48:24;10.30;;;5.30;;
78430;SDS011;67727;50.236;22.452;2024-01-16T12:50:58;7.40;;;4.00;;
78430;SDS011;67727;50.236;22.452;2024-01-16T12:53:27;12.20;;;4.30;;
78430;SDS011;67727;50.236;22.452;2024-01-16T12:55:58;23.20;;;8.90;;
78430;SDS011;67727;50.236;22.452;2024-01-16T12:58:32;30.90;;;13.80;;
78430;SDS011;67727;50.236;22.452;2024-01-16T13:03:54;26.50;;;14.30;;
78430;SDS011;67727;50.236;22.452;2024-01-16T13:06:22;25.30;;;14.10;;
78430;SDS011;67727;50.236;22.452;2024-01-16T13:08:50;25.10;;;14.00;;
78430;SDS011;67727;50.236;22.452;2024-01-16T13:11:17;29.80;;;16.30;;
78430;SDS011;67727;50.236;22.452;2024-01-16T13:13:47;41.80;;;20.90;;
78430;SDS011;67727;50.236;22.452;2024-01-16T13:16:15;35.00;;;18.00;;
78430;SDS011;67727;50.236;22.452;2024-01-16T13:18:43;30.30;;;13.90;;
78430;SDS011;67727;50.236;22.452;2024-01-16T13:21:10;32.30;;;13.50;;
78430;SDS011;67727;50.236;22.452;2024-01-16T13:23:37;50.10;;;18.90;;
78430;SDS011;67727;50.236;22.452;2024-01-16T13:26:03;56.20;;;18.80;;
78430;SDS011;67727;50.236;22.452;2024-01-16T13:28:31;37.40;;;13.80;;
78430;SDS011;67727;50.236;22.452;2024-01-16T13:30:58;25.40;;;9.90;;
78430;SDS011;67727;50.236;22.452;2024-01-16T13:33:25;23.50;;;12.40;;
78430;SDS011;67727;50.236;22.452;2024-01-16T13:35:55;25.60;;;10.60;;
78430;SDS011;67727;50.236;22.452;2024-01-16T13:38:22;27.80;;;10.50;;
78430;SDS011;67727;50.236;22.452;2024-01-16T13:40:50;25.30;;;9.70;;
78430;SDS011;67727;50.236;22.452;2024-01-16T13:43:18;32.40;;;10.90;;
78430;SDS011;67727;50.236;22.452;2024-01-16T13:45:48;23.70;;;9.90;;
78430;SDS011;67727;50.236;22.452;2024-01-16T13:48:18;91.80;;;25.70;;
78430;SDS011;67727;50.236;22.452;2024-01-16T13:50:45;30.00;;;12.20;;
78430;SDS011;67727;50.236;22.452;2024-01-16T13:53:12;32.30;;;12.90;;
78430;SDS011;67727;50.236;22.452;2024-01-16T13:55:42;29.80;;;13.60;;
78430;SDS011;67727;50.236;22.452;2024-01-16T13:58:09;54.50;;;18.90;;
78430;SDS011;67727;50.236;22.452;2024-01-16T14:00:37;88.70;;;22.60;;
78430;SDS011;67727;50.236;22.452;2024-01-16T14:03:04;79.10;;;27.00;;
78430;SDS011;67727;50.236;22.452;2024-01-16T14:05:33;63.60;;;19.50;;
78430;SDS011;67727;50.236;22.452;2024-01-16T14:08:00;57.20;;;17.00;;
78430;SDS011;67727;50.236;22.452;2024-01-16T14:10:27;49.70;;;14.90;;
78430;SDS011;67727;50.236;22.452;2024-01-16T14:12:54;62.30;;;18.90;;
78430;SDS011;67727;50.236;22.452;2024-01-16T14:17:50;55.90;;;19.00;;
78430;SDS011;67727;50.236;22.452;2024-01-16T14:20:19;47.50;;;19.80;;
78430;SDS011;67727;50.236;22.452;2024-01-16T14:22:50;65.50;;;26.10;;
78430;SDS011;67727;50.236;22.452;2024-01-16T14:25:18;111.80;;;33.20;;
78430;SDS011;67727;50.236;22.452;2024-01-16T14:27:56;95.90;;;29.70;;
78430;SDS011;67727;50.236;22.452;2024-01-16T14:30:24;88.40;;;27.00;;
78430;SDS011;67727;50.236;22.452;2024-01-16T14:32:52;64.70;;;22.00;;
78430;SDS011;67727;50.236;22.452;2024-01-16T14:35:19;81.20;;;27.70;;
78430;SDS011;67727;50.236;22.452;2024-01-16T14:37:47;69.00;;;26.80;;
78430;SDS011;67727;50.236;22.452;2024-01-16T14:40:14;59.30;;;20.20;;
78430;SDS011;67727;50.236;22.452;2024-01-16T14:42:47;53.00;;;16.60;;
78430;SDS011;67727;50.236;22.452;2024-01-16T14:45:20;38.20;;;16.50;;
78430;SDS011;67727;50.236;22.452;2024-01-16T14:47:48;62.70;;;18.00;;
78430;SDS011;67727;50.236;22.452;2024-01-16T14:50:17;34.20;;;12.80;;
78430;SDS011;67727;50.236;22.452;2024-01-16T14:52:44;43.60;;;15.20;;
78430;SDS011;67727;50.236;22.452;2024-01-16T14:55:12;41.20;;;15.50;;
78430;SDS011;67727;50.236;22.452;2024-01-16T14:57:38;50.50;;;14.30;;
78430;SDS011;67727;50.236;22.452;2024-01-16T15:00:09;36.40;;;12.00;;
78430;SDS011;67727;50.236;22.452;2024-01-16T15:02:46;39.60;;;14.30;;
78430;SDS011;67727;50.236;22.452;2024-01-16T15:05:14;46.20;;;14.70;;